Time;durP1;ratioP1;P1;durP2;ratioP2;P2;SDS_P1;SDS_P2;PMS_P1;PMS_P2;Temp;Humidity;BMP_temperature;BMP_pressure;BME280_temperature;BME280_humidity;BME280_pressure;Samples;Min_cycle;Max_cycle;Signal;HPM_P1;HPM_P2
2022/11/08 00:02:30;;;;;;;18.80;13.00;;;;;;;8.56;84.96;100258.52;125026;1312;98673;-80
2022/11/08 00:15:45;;;;;;;16.60;10.60;;;;;;;8.70;84.86;100267.02;125132;1296;98811;-80
2022/11/08 00:18:51;;;;;;;19.30;10.20;;;;;;;8.71;85.10;100268.20;125176;1295;98830;-80
2022/11/08 00:21:56;;;;;;;16.90;11.80;;;;;;;8.73;85.05;100264.23;125305;1302;99101;-81
2022/11/08 00:25:02;;;;;;;16.30;12.10;;;;;;;8.78;84.97;100266.66;125431;1297;99150;-80
2022/11/08 00:28:07;;;;;;;21.90;11.60;;;;;;;8.81;84.82;100263.52;125359;1303;99167;-81
2022/11/08 00:31:13;;;;;;;16.30;11.30;;;;;;;8.85;84.95;100265.98;125284;1303;99133;-80
2022/11/08 00:34:18;;;;;;;15.90;11.80;;;;;;;8.85;85.08;100264.73;125377;1289;98005;-81
2022/11/08 00:37:24;;;;;;;16.90;12.40;;;;;;;8.85;85.21;100261.39;125267;1302;98124;-81
2022/11/08 00:40:29;;;;;;;14.50;9.90;;;;;;;8.83;85.22;100262.29;125209;1296;99248;-81
2022/11/08 00:43:34;;;;;;;15.40;9.50;;;;;;;8.81;85.03;100266.52;125185;1288;98025;-81
2022/11/08 00:46:40;;;;;;;15.30;11.10;;;;;;;8.79;84.91;100269.18;125230;1303;98021;-81
2022/11/08 00:49:45;;;;;;;15.50;10.80;;;;;;;8.76;85.03;100270.36;125217;1303;99262;-80
2022/11/08 00:52:51;;;;;;;15.80;11.00;;;;;;;8.73;84.80;100268.01;125190;1293;99122;-81
2022/11/08 00:56:02;;;;;;;14.80;10.20;;;;;;;8.66;84.89;100269.85;125272;1303;98048;-78
2022/11/08 00:59:07;;;;;;;19.00;11.60;;;;;;;8.58;84.94;100270.77;125149;1292;98082;-79
2022/11/08 01:02:12;;;;;;;16.10;11.10;;;;;;;8.50;84.95;100270.44;125152;1297;98002;-78
2022/11/08 01:05:18;;;;;;;14.80;9.70;;;;;;;8.40;84.96;100269.13;125092;1312;98773;-82
2022/11/08 01:08:24;;;;;;;12.60;8.70;;;;;;;8.32;85.01;100269.91;125123;1302;98141;-78
2022/11/08 01:11:30;;;;;;;14.50;10.20;;;;;;;8.26;85.11;100272.70;125160;1297;99202;-80
2022/11/08 01:14:36;;;;;;;15.80;10.50;;;;;;;8.25;85.23;100269.93;125279;1304;99190;-79
2022/11/08 01:17:42;;;;;;;15.70;10.40;;;;;;;8.27;85.40;100270.34;125136;1296;98036;-79
2022/11/08 01:20:48;;;;;;;15.40;11.10;;;;;;;8.30;85.56;100271.83;125151;1304;98807;-79
2022/11/08 01:23:54;;;;;;;16.80;11.40;;;;;;;8.35;85.63;100265.55;125191;1304;98664;-79
2022/11/08 01:27:00;;;;;;;15.00;9.70;;;;;;;8.37;85.54;100266.42;125097;1296;99173;-79
2022/11/08 01:30:07;;;;;;;15.00;9.30;;;;;;;8.40;85.61;100264.86;125129;1302;98127;-80
2022/11/08 01:33:13;;;;;;;15.10;10.80;;;;;;;8.45;85.58;100265.35;125133;1303;98832;-80
2022/11/08 01:36:21;;;;;;;17.30;11.00;;;;;;;8.52;85.67;100263.86;125321;1304;99220;-80
2022/11/08 01:39:31;;;;;;;16.20;11.10;;;;;;;8.59;85.54;100261.84;125116;1297;98020;-80
2022/11/08 01:42:37;;;;;;;15.20;10.70;;;;;;;8.63;85.57;100259.80;125273;1289;98182;-80
2022/11/08 01:46:20;;;;;;;16.20;10.50;;;;;;;8.67;85.48;100259.33;125486;1303;97980;-81
2022/11/08 01:49:37;;;;;;;13.30;9.20;;;;;;;8.68;85.74;100254.08;125242;1303;98142;-80
2022/11/08 01:52:46;;;;;;;14.10;9.40;;;;;;;8.69;85.65;100253.14;125370;1303;98651;-80
2022/11/08 01:55:51;;;;;;;15.50;10.50;;;;;;;8.72;85.70;100251.06;125298;1290;98440;-80
2022/11/08 01:59:02;;;;;;;15.40;9.80;;;;;;;8.77;85.61;100250.95;125294;1297;98782;-80
2022/11/08 02:02:09;;;;;;;13.60;10.00;;;;;;;8.83;85.66;100247.39;125274;1309;99172;-80
2022/11/08 02:05:26;;;;;;;16.50;10.60;;;;;;;8.86;85.44;100253.64;125180;1303;98003;-80
2022/11/08 02:08:36;;;;;;;17.00;11.50;;;;;;;8.88;85.63;100255.81;125161;1303;99183;-80
2022/11/08 02:11:42;;;;;;;14.40;10.90;;;;;;;8.88;85.62;100250.15;125158;1311;98715;-80
2022/11/08 02:14:48;;;;;;;13.60;9.50;;;;;;;8.87;85.56;100249.47;125205;1298;98715;-78
2022/11/08 02:17:54;;;;;;;16.10;9.30;;;;;;;8.86;85.57;100247.77;125199;1309;98946;-78
2022/11/08 02:21:06;;;;;;;15.80;10.80;;;;;;;8.88;85.60;100249.06;125191;1293;98088;-78
2022/11/08 02:24:11;;;;;;;;;;;;;;;8.91;85.52;100250.17;125106;1303;98020;-79
2022/11/08 02:27:17;;;;;;;13.60;9.10;;;;;;;8.94;85.57;100251.45;125207;1303;98122;-79
2022/11/08 02:30:23;;;;;;;17.00;10.50;;;;;;;8.97;85.49;100251.60;125221;1297;98048;-79
2022/11/08 02:33:28;;;;;;;15.00;10.40;;;;;;;8.97;85.60;100246.28;125125;1303;98037;-79
2022/11/08 02:36:33;;;;;;;15.50;9.60;;;;;;;8.95;85.68;100249.40;125186;1303;98042;-79
2022/11/08 02:39:39;;;;;;;15.10;9.20;;;;;;;8.93;85.49;100250.51;125195;1295;98887;-79
2022/11/08 02:42:44;;;;;;;15.50;9.70;;;;;;;8.93;85.66;100250.16;124936;1303;197874;-79
2022/11/08 02:45:51;;;;;;;15.50;10.80;;;;;;;8.94;85.62;100250.73;125176;1303;99204;-78
2022/11/08 02:48:56;;;;;;;16.50;11.10;;;;;;;8.96;85.80;100247.95;125170;1297;98121;-78
2022/11/08 02:52:02;;;;;;;15.00;10.70;;;;;;;8.95;85.63;100245.76;125082;1296;99053;-78
2022/11/08 02:55:08;;;;;;;16.30;10.80;;;;;;;8.89;85.47;100246.79;125369;1303;99225;-79
2022/11/08 02:58:14;;;;;;;17.30;10.70;;;;;;;8.82;85.32;100247.64;125318;1295;98035;-80
2022/11/08 03:01:19;;;;;;;15.90;9.70;;;;;;;8.72;85.37;100251.74;125277;1296;98020;-79
2022/11/08 03:04:24;;;;;;;14.10;9.30;;;;;;;8.62;85.45;100249.59;125162;1290;99199;-80
2022/11/08 03:07:30;;;;;;;16.80;10.70;;;;;;;8.55;85.41;100251.34;125378;1303;99200;-80
2022/11/08 03:10:35;;;;;;;17.00;11.10;;;;;;;8.49;85.47;100258.15;125242;1296;98764;-79
2022/11/08 03:13:41;;;;;;;18.60;11.70;;;;;;;8.43;85.47;100256.48;125199;1304;98044;-79
2022/11/08 03:16:46;;;;;;;20.10;11.80;;;;;;;8.37;85.46;100260.00;125264;1297;99090;-79
2022/11/08 03:19:52;;;;;;;15.90;11.10;;;;;;;8.34;85.55;100261.92;125173;1296;98044;-80
2022/11/08 03:23:01;;;;;;;16.30;11.50;;;;;;;8.33;85.81;100263.73;125144;1311;98115;-80
2022/11/08 03:26:06;;;;;;;16.10;10.00;;;;;;;8.33;85.75;100259.48;125246;1293;98081;-80
2022/11/08 03:29:12;;;;;;;13.70;8.50;;;;;;;8.35;85.86;100255.42;125271;1296;99034;-82
2022/11/08 03:32:18;;;;;;;16.50;11.40;;;;;;;8.40;85.88;100257.27;125130;1296;99291;-80
2022/11/08 03:35:24;;;;;;;18.60;11.70;;;;;;;8.45;85.99;100253.67;125140;1303;99279;-80
2022/11/08 03:38:29;;;;;;;17.50;11.90;;;;;;;8.52;86.03;100261.34;125185;1303;99167;-79
2022/11/08 03:41:34;;;;;;;18.20;12.10;;;;;;;8.59;86.05;100260.57;125146;1302;99071;-80
2022/11/08 03:44:40;;;;;;;17.70;11.80;;;;;;;8.62;85.88;100261.98;125178;1290;99170;-80
2022/11/08 03:47:47;;;;;;;14.20;9.90;;;;;;;8.64;85.84;100262.91;125170;1296;99158;-79
2022/11/08 03:50:53;;;;;;;15.60;10.60;;;;;;;8.66;86.02;100268.96;125277;1296;99079;-81
2022/11/08 03:53:58;;;;;;;93.10;42.20;;;;;;;8.70;85.97;100261.90;125395;1296;98344;-78
2022/11/08 03:57:04;;;;;;;26.00;15.10;;;;;;;8.75;86.01;100261.45;125328;1303;98719;-83
2022/11/08 04:00:11;;;;;;;21.90;13.20;;;;;;;8.79;85.91;100264.73;125516;1296;98676;-83
2022/11/08 04:03:17;;;;;;;20.90;13.10;;;;;;;8.79;85.96;100258.14;125422;1298;98013;-82
2022/11/08 04:06:22;;;;;;;19.60;13.30;;;;;;;8.77;85.78;100255.68;125386;1303;99167;-76
2022/11/08 04:09:28;;;;;;;16.10;10.70;;;;;;;8.73;85.91;100251.83;125366;1290;98156;-77
2022/11/08 04:15:57;;;;;;;19.90;12.80;;;;;;;8.69;85.95;100258.73;125298;1303;99177;-74
2022/11/08 04:22:26;;;;;;;16.90;11.10;;;;;;;8.73;85.91;100268.69;125336;1295;99166;-77
2022/11/08 04:25:31;;;;;;;18.20;12.70;;;;;;;8.75;85.96;100271.84;125391;1293;97994;-76
2022/11/08 04:28:38;;;;;;;19.70;13.50;;;;;;;8.75;85.88;100276.09;125538;1290;98008;-77
2022/11/08 04:31:44;;;;;;;18.80;12.60;;;;;;;8.74;85.90;100274.63;125331;1296;98109;-76
2022/11/08 04:34:49;;;;;;;22.10;14.70;;;;;;;8.74;85.87;100276.45;125229;1295;98145;-76
2022/11/08 04:37:59;;;;;;;22.90;13.80;;;;;;;8.73;86.02;100271.17;125364;1295;99052;-76
2022/11/08 04:41:06;;;;;;;52.40;24.50;;;;;;;8.75;85.83;100271.20;125490;1296;98722;-77
2022/11/08 04:44:14;;;;;;;31.40;18.40;;;;;;;8.76;85.85;100268.27;125429;1303;98783;-76
2022/11/08 04:47:19;;;;;;;21.20;13.00;;;;;;;8.76;85.82;100266.25;125203;1296;99061;-75
2022/11/08 04:50:25;;;;;;;22.50;14.80;;;;;;;8.72;85.72;100268.12;125301;1303;98082;-75
2022/11/08 04:53:30;;;;;;;22.80;13.00;;;;;;;8.65;85.57;100271.15;125166;1302;98006;-75
2022/11/08 04:56:36;;;;;;;28.20;15.50;;;;;;;8.57;85.73;100274.36;125094;1299;98127;-77
2022/11/08 04:59:40;;;;;;;;;;;;;;;8.50;85.75;100272.74;125200;1288;98899;-77
2022/11/08 05:02:45;;;;;;;21.20;12.80;;;;;;;8.44;85.66;100267.45;125162;1303;98024;-74
2022/11/08 05:05:51;;;;;;;35.60;18.30;;;;;;;8.39;85.80;100264.44;125178;1297;98694;-75
2022/11/08 05:08:58;;;;;;;19.50;13.10;;;;;;;8.34;85.65;100262.27;125130;1297;98156;-74
2022/11/08 05:12:03;;;;;;;19.00;12.90;;;;;;;8.27;85.63;100265.38;125209;1295;98052;-74
2022/11/08 05:15:11;;;;;;;21.50;14.30;;;;;;;8.19;85.62;100266.73;125241;1295;98002;-75
2022/11/08 05:18:17;;;;;;;20.60;14.00;;;;;;;8.12;85.73;100266.02;125220;1303;99148;-75
2022/11/08 05:24:46;;;;;;;17.60;12.90;;;;;;;7.97;85.97;100275.80;125126;1296;98822;-75
2022/11/08 05:27:52;;;;;;;23.20;13.60;;;;;;;7.97;85.95;100275.12;125174;1303;98584;-75
2022/11/08 05:30:58;;;;;;;19.20;13.80;;;;;;;7.99;86.06;100277.95;125221;1303;98775;-76
2022/11/08 05:34:03;;;;;;;19.90;14.20;;;;;;;8.01;86.01;100278.83;125145;1303;98031;-75
2022/11/08 05:37:09;;;;;;;20.60;14.40;;;;;;;8.00;85.89;100279.45;125128;1303;98723;-76
2022/11/08 05:40:14;;;;;;;25.20;15.90;;;;;;;7.94;85.57;100281.56;125172;1296;98105;-77
2022/11/08 05:43:20;;;;;;;39.20;19.50;;;;;;;7.86;85.69;100284.42;125126;1296;98785;-76
2022/11/08 05:46:25;;;;;;;34.20;15.30;;;;;;;7.78;85.68;100285.31;125057;1301;98055;-74
2022/11/08 05:49:31;;;;;;;224.80;58.60;;;;;;;7.70;85.96;100291.46;125316;1299;98212;-77
2022/11/08 05:52:36;;;;;;;58.30;24.90;;;;;;;7.66;85.86;100291.84;125351;1303;99242;-77
2022/11/08 05:55:41;;;;;;;25.80;14.00;;;;;;;7.65;85.93;100293.98;125365;1297;98079;-76
2022/11/08 05:58:47;;;;;;;21.20;13.50;;;;;;;7.67;85.77;100295.11;125394;1296;99195;-76
2022/11/08 06:01:53;;;;;;;20.50;13.60;;;;;;;7.65;86.06;100301.06;125269;1296;98490;-76
2022/11/08 06:04:58;;;;;;;19.20;12.40;;;;;;;7.63;85.80;100304.96;125321;1297;98105;-76
2022/11/08 06:08:04;;;;;;;20.40;12.10;;;;;;;7.60;85.94;100309.36;125319;1296;99090;-76
2022/11/08 06:11:12;;;;;;;18.80;12.00;;;;;;;7.57;85.91;100311.52;125324;1302;98008;-76
2022/11/08 06:14:17;;;;;;;19.50;11.80;;;;;;;7.57;86.17;100314.77;125348;1302;98064;-76
2022/11/08 06:17:23;;;;;;;22.90;14.00;;;;;;;7.57;86.00;100317.67;125132;1303;98008;-76
2022/11/08 06:20:28;;;;;;;59.80;24.30;;;;;;;7.60;85.91;100313.98;125087;1297;98769;-75
2022/11/08 06:23:34;;;;;;;28.40;17.40;;;;;;;7.63;85.86;100315.64;125076;1289;98362;-75
2022/11/08 06:26:40;;;;;;;21.60;14.90;;;;;;;7.62;86.05;100314.48;125182;1289;98082;-76
2022/11/08 06:29:45;;;;;;;34.80;18.30;;;;;;;7.61;86.04;100314.52;124996;1303;98968;-76
2022/11/08 06:32:50;;;;;;;22.30;12.60;;;;;;;7.60;85.95;100315.52;125075;1309;98800;-77
2022/11/08 06:35:56;;;;;;;25.20;13.70;;;;;;;7.60;86.10;100316.75;125110;1296;98030;-76
2022/11/08 06:39:01;;;;;;;24.20;13.90;;;;;;;7.63;86.20;100319.67;125143;1303;98094;-76
2022/11/08 06:42:07;;;;;;;23.70;14.40;;;;;;;7.69;86.10;100317.37;125174;1289;98004;-76
2022/11/08 06:45:13;;;;;;;31.10;15.90;;;;;;;7.75;86.31;100316.00;125059;1298;98034;-77
2022/11/08 06:48:18;;;;;;;33.60;20.70;;;;;;;7.79;86.13;100315.07;125385;1295;98017;-78
2022/11/08 06:51:23;;;;;;;23.30;15.40;;;;;;;7.83;86.07;100313.15;125320;1296;99231;-76
2022/11/08 06:54:29;;;;;;;36.00;13.10;;;;;;;7.85;86.23;100312.97;125352;1303;98027;-77
2022/11/08 06:57:34;;;;;;;17.50;11.80;;;;;;;7.90;86.19;100319.00;125186;1301;98669;-78
2022/11/08 07:00:40;;;;;;;19.20;13.10;;;;;;;7.97;86.16;100323.86;125119;1296;98015;-78
2022/11/08 07:03:45;;;;;;;17.80;12.80;;;;;;;8.05;86.08;100325.58;125209;1308;98106;-78
2022/11/08 07:06:51;;;;;;;38.00;21.60;;;;;;;8.12;86.08;100328.86;125173;1297;99170;-78
2022/11/08 07:09:56;;;;;;;31.10;17.00;;;;;;;8.19;86.18;100325.77;125226;1302;98701;-78
2022/11/08 07:13:04;;;;;;;57.80;28.30;;;;;;;8.23;86.03;100322.77;125225;1303;99125;-78
2022/11/08 07:16:10;;;;;;;23.90;14.90;;;;;;;8.28;86.13;100323.26;125360;1297;98798;-80
2022/11/08 07:19:15;;;;;;;18.00;11.60;;;;;;;8.31;86.01;100324.41;125029;1303;98602;-80
2022/11/08 07:22:21;;;;;;;22.00;13.60;;;;;;;8.35;85.98;100317.64;125100;1296;99164;-78
2022/11/08 07:25:27;;;;;;;18.60;12.10;;;;;;;8.41;86.23;100317.86;125067;1296;98026;-78
2022/11/08 07:28:33;;;;;;;20.20;13.10;;;;;;;8.49;86.07;100317.33;125266;1296;98050;-78
2022/11/08 07:31:38;;;;;;;17.30;12.10;;;;;;;8.58;86.22;100318.48;125359;1293;98769;-79
2022/11/08 07:34:44;;;;;;;19.00;13.10;;;;;;;8.65;86.10;100325.06;125339;1295;98098;-80
2022/11/08 07:37:49;;;;;;;19.80;13.80;;;;;;;8.71;85.94;100323.31;125294;1290;98696;-79
2022/11/08 07:40:58;;;;;;;18.00;12.30;;;;;;;8.76;86.01;100326.56;125361;1288;99278;-80
2022/11/08 07:44:04;;;;;;;21.00;13.00;;;;;;;8.79;86.07;100324.94;125384;1289;99188;-79
2022/11/08 07:47:09;;;;;;;18.00;10.60;;;;;;;8.83;86.12;100319.23;125328;1296;98794;-79
2022/11/08 07:50:14;;;;;;;16.30;10.90;;;;;;;8.89;86.06;100320.29;125291;1296;99166;-79
2022/11/08 07:53:20;;;;;;;20.90;12.10;;;;;;;8.97;86.11;100320.02;125144;1296;98782;-79
2022/11/08 07:56:25;;;;;;;15.90;11.00;;;;;;;9.08;85.96;100324.39;125133;1299;98675;-80
2022/11/08 07:59:31;;;;;;;18.60;12.50;;;;;;;9.17;86.04;100323.73;125162;1303;99209;-79
2022/11/08 08:02:36;;;;;;;16.50;11.50;;;;;;;9.22;85.81;100327.98;125265;1303;98106;-79
2022/11/08 08:05:43;;;;;;;42.20;19.10;;;;;;;9.27;86.07;100326.67;125169;1302;99179;-79
2022/11/08 08:08:49;;;;;;;23.80;13.70;;;;;;;9.34;85.96;100329.54;125379;1290;98036;-79
2022/11/08 08:11:54;;;;;;;18.10;11.10;;;;;;;9.42;85.86;100330.39;125389;1300;98128;-77
2022/11/08 08:15:00;;;;;;;16.90;12.20;;;;;;;9.52;85.59;100332.34;125290;1289;99201;-78
2022/11/08 08:18:07;;;;;;;16.10;12.50;;;;;;;9.60;85.74;100333.86;125046;1303;98778;-79
2022/11/08 08:21:13;;;;;;;17.60;12.00;;;;;;;9.69;85.61;100331.69;125232;1296;99089;-79
2022/11/08 08:24:18;;;;;;;15.50;10.80;;;;;;;9.74;85.44;100329.90;125113;1297;99049;-79
2022/11/08 08:27:23;;;;;;;15.30;10.90;;;;;;;9.78;85.61;100333.09;125115;1303;98101;-78
2022/11/08 08:30:31;;;;;;;16.80;10.50;;;;;;;9.82;85.71;100328.92;125121;1303;99116;-78
2022/11/08 08:33:36;;;;;;;12.40;8.60;;;;;;;9.86;85.45;100328.57;125064;1296;97974;-77
2022/11/08 08:36:42;;;;;;;18.10;11.50;;;;;;;9.93;85.56;100326.85;125063;1295;99071;-77
2022/11/08 08:39:47;;;;;;;15.20;11.20;;;;;;;10.00;85.43;100320.29;125096;1296;99066;-77
2022/11/08 08:42:53;;;;;;;14.20;10.00;;;;;;;10.11;85.75;100320.75;125128;1302;99206;-78
2022/11/08 08:46:01;;;;;;;15.80;10.40;;;;;;;10.17;85.27;100318.71;125142;1303;98033;-77
2022/11/08 08:49:06;;;;;;;15.00;10.60;;;;;;;10.23;85.47;100319.02;125193;1303;98660;-77
2022/11/08 08:52:12;;;;;;;16.80;11.40;;;;;;;10.27;85.38;100316.46;125096;1296;98102;-77
2022/11/08 08:55:18;;;;;;;17.80;9.40;;;;;;;10.31;85.04;100313.13;125148;1296;98025;-77
2022/11/08 08:58:24;;;;;;;14.00;8.70;;;;;;;10.36;85.10;100316.23;125086;1296;98055;-78
2022/11/08 09:01:29;;;;;;;14.90;10.50;;;;;;;10.43;85.35;100312.95;125148;1297;98236;-77
2022/11/08 09:04:37;;;;;;;14.80;10.30;;;;;;;10.54;85.01;100318.31;125103;1302;98067;-78
2022/11/08 09:07:43;;;;;;;14.90;10.50;;;;;;;10.65;84.89;100317.59;125141;1289;98038;-77
2022/11/08 09:10:54;;;;;;;15.90;11.10;;;;;;;10.73;84.74;100316.42;125060;1297;99157;-78
2022/11/08 09:13:59;;;;;;;14.60;10.50;;;;;;;10.78;85.04;100319.98;125152;1296;98110;-78
2022/11/08 09:17:05;;;;;;;15.30;10.00;;;;;;;10.83;84.67;100323.82;125170;1296;98104;-78
2022/11/08 09:20:13;;;;;;;14.10;10.00;;;;;;;10.85;84.48;100325.94;125074;1296;98112;-78
2022/11/08 09:23:18;;;;;;;14.60;9.60;;;;;;;10.87;84.63;100331.03;125114;1303;98095;-79
2022/11/08 09:26:24;;;;;;;14.60;9.60;;;;;;;10.94;84.83;100328.10;125150;1303;99147;-78
2022/11/08 09:29:29;;;;;;;15.10;10.30;;;;;;;11.03;84.74;100328.06;125176;1298;98192;-78
2022/11/08 09:32:34;;;;;;;15.80;10.90;;;;;;;11.12;84.43;100321.80;125105;1295;98028;-78
2022/11/08 09:35:40;;;;;;;18.70;11.90;;;;;;;11.19;84.36;100326.63;125130;1303;98010;-77
2022/11/08 09:38:45;;;;;;;16.30;10.60;;;;;;;11.24;84.05;100328.94;125332;1296;98023;-79
2022/11/08 09:42:25;;;;;;;16.30;11.00;;;;;;;11.30;83.97;100326.08;125401;1295;99074;-79
2022/11/08 09:45:36;;;;;;;16.20;10.60;;;;;;;11.33;84.24;100323.59;125327;1300;99211;-80
2022/11/08 09:48:44;;;;;;;14.90;10.40;;;;;;;11.33;83.93;100323.77;125265;1296;99169;-79
2022/11/08 09:51:50;;;;;;;17.30;9.60;;;;;;;11.35;84.07;100322.33;125088;1294;98272;-79
2022/11/08 09:55:10;;;;;;;13.50;9.80;;;;;;;11.43;84.05;100321.55;125145;1296;98026;-78
2022/11/08 09:58:26;;;;;;;14.50;10.60;;;;;;;11.51;83.99;100315.89;125036;1303;98127;-80
2022/11/08 10:01:34;;;;;;;14.00;10.40;;;;;;;11.60;83.86;100309.48;125193;1290;99163;-81
2022/11/08 10:04:40;;;;;;;17.90;11.20;;;;;;;11.70;83.73;100310.95;125127;1297;98006;-81
2022/11/08 10:07:53;;;;;;;16.40;10.60;;;;;;;11.73;83.66;100311.44;125111;1289;99155;-79
2022/11/08 10:11:17;;;;;;;14.70;10.70;;;;;;;11.76;83.73;100313.47;125091;1297;98095;-79
2022/11/08 10:14:45;;;;;;;16.30;11.20;;;;;;;11.82;83.56;100308.07;125125;1303;98800;-79
2022/11/08 10:18:07;;;;;;;15.60;10.30;;;;;;;11.85;83.87;100306.48;125189;1308;98022;-79
2022/11/08 10:21:20;;;;;;;;;;;;;;;11.89;83.73;100312.19;125178;1296;99169;-80
2022/11/08 10:24:35;;;;;;;14.00;9.30;;;;;;;11.94;83.52;100309.66;125117;1297;99060;-80
2022/11/08 10:27:43;;;;;;;14.00;9.60;;;;;;;12.02;83.49;100305.99;125232;1304;98080;-80
2022/11/08 10:30:51;;;;;;;14.00;9.30;;;;;;;12.12;83.35;100298.36;125192;1296;98142;-79
2022/11/08 10:33:58;;;;;;;13.00;9.40;;;;;;;12.22;83.18;100300.30;125155;1311;97991;-79
2022/11/08 10:37:06;;;;;;;13.90;9.90;;;;;;;12.30;83.11;100295.05;125183;1294;99234;-79
2022/11/08 10:40:19;;;;;;;14.80;9.80;;;;;;;12.35;82.88;100286.46;125096;1296;98034;-79
2022/11/08 10:43:33;;;;;;;13.60;9.50;;;;;;;12.38;82.85;100278.14;125072;1296;98063;-79
2022/11/08 10:46:42;;;;;;;13.10;9.00;;;;;;;12.40;82.77;100277.98;125112;1297;99051;-79
2022/11/08 10:49:48;;;;;;;15.20;9.00;;;;;;;12.41;82.66;100274.59;125175;1289;99224;-79
2022/11/08 10:52:59;;;;;;;13.70;8.90;;;;;;;12.40;82.56;100270.98;125085;1297;98023;-79
2022/11/08 10:56:06;;;;;;;13.50;9.10;;;;;;;12.40;82.47;100272.71;125134;1296;98125;-79
2022/11/08 10:59:31;;;;;;;12.30;9.90;;;;;;;12.43;82.66;100273.66;125070;1303;98362;-79
2022/11/08 11:02:37;;;;;;;13.00;7.00;;;;;;;12.49;82.31;100271.60;125062;1290;99184;-79
2022/11/08 11:05:54;;;;;;;10.80;7.60;;;;;;;12.56;82.43;100264.05;125104;1296;98016;-79
2022/11/08 11:09:02;;;;;;;14.60;8.00;;;;;;;12.64;82.29;100262.55;125113;1306;99204;-79
2022/11/08 11:12:09;;;;;;;13.80;7.60;;;;;;;12.71;82.44;100261.75;125121;1296;98186;-79
2022/11/08 11:15:17;;;;;;;12.50;8.20;;;;;;;12.75;82.29;100261.45;124998;1289;98036;-79
2022/11/08 11:18:30;;;;;;;11.30;7.70;;;;;;;12.79;82.15;100257.17;125133;1297;98041;-79
2022/11/08 11:21:40;;;;;;;10.20;7.90;;;;;;;12.81;81.81;100256.98;125048;1296;98176;-79
2022/11/08 11:24:53;;;;;;;9.80;7.10;;;;;;;12.79;81.90;100252.64;125104;1297;98012;-79
2022/11/08 11:28:00;;;;;;;11.10;7.10;;;;;;;12.80;81.63;100253.25;125144;1293;98690;-79
2022/11/08 11:31:16;;;;;;;10.70;6.60;;;;;;;12.81;81.74;100249.59;125203;1302;99186;-79
2022/11/08 11:34:43;;;;;;;9.60;6.60;;;;;;;12.86;81.04;100248.33;125134;1309;98124;-79
2022/11/08 11:37:50;;;;;;;10.30;6.90;;;;;;;12.93;81.10;100244.64;125157;1297;98811;-78
2022/11/08 11:41:00;;;;;;;9.40;6.60;;;;;;;13.01;81.27;100249.14;125087;1299;98017;-79
2022/11/08 11:44:17;;;;;;;9.40;6.40;;;;;;;13.09;81.22;100250.86;125102;1297;98664;-79
2022/11/08 11:47:30;;;;;;;9.90;6.80;;;;;;;13.11;80.88;100249.38;125128;1297;98622;-79
2022/11/08 11:50:37;;;;;;;13.70;6.80;;;;;;;13.13;80.87;100249.68;125118;1297;98794;-79
2022/11/08 11:53:43;;;;;;;11.30;6.70;;;;;;;13.14;80.70;100248.84;125159;1296;99086;-80
2022/11/08 11:56:56;;;;;;;10.00;6.20;;;;;;;13.14;80.54;100243.08;125098;1297;99219;-79
2022/11/08 12:00:08;;;;;;;8.70;5.90;;;;;;;13.13;80.69;100243.34;124977;1297;98814;-78
2022/11/08 12:03:34;;;;;;;8.30;5.70;;;;;;;13.15;80.34;100243.39;125088;1303;99321;-79
2022/11/08 12:06:48;;;;;;;7.90;5.30;;;;;;;13.16;80.25;100243.91;125024;1296;98044;-79
2022/11/08 12:10:05;;;;;;;10.90;5.40;;;;;;;13.22;80.29;100245.13;125141;1303;98014;-79
2022/11/08 12:13:22;;;;;;;8.20;5.80;;;;;;;13.26;79.86;100241.38;125134;1312;98108;-78
2022/11/08 12:16:33;;;;;;;11.60;6.30;;;;;;;13.29;79.80;100244.11;125100;1296;99164;-79
2022/11/08 12:19:47;;;;;;;8.60;6.20;;;;;;;13.28;79.66;100240.77;125104;1290;98047;-79
2022/11/08 12:23:04;;;;;;;10.50;7.10;;;;;;;13.27;79.63;100238.77;125118;1297;98801;-79
2022/11/08 12:26:20;;;;;;;9.90;6.20;;;;;;;13.25;79.61;100234.34;125094;1297;98032;-79
2022/11/08 12:29:30;;;;;;;11.50;6.20;;;;;;;13.22;79.68;100228.96;124992;1302;99233;-79
2022/11/08 12:32:49;;;;;;;10.50;5.90;;;;;;;13.22;79.67;100229.93;125171;1295;98029;-79
2022/11/08 12:36:10;;;;;;;9.50;6.10;;;;;;;13.25;79.68;100230.29;125110;1298;99277;-79
2022/11/08 12:39:31;;;;;;;8.30;5.80;;;;;;;13.30;79.53;100226.86;125217;1302;98061;-79
2022/11/08 12:42:55;;;;;;;7.30;5.70;;;;;;;13.37;79.39;100218.14;125009;1297;99201;-79
2022/11/08 12:46:11;;;;;;;8.60;5.90;;;;;;;13.39;79.26;100210.70;125054;1290;98145;-80
2022/11/08 12:49:28;;;;;;;10.00;6.00;;;;;;;13.41;78.94;100215.55;125355;1303;98090;-80
2022/11/08 12:52:46;;;;;;;9.90;5.70;;;;;;;13.40;78.71;100220.04;125197;1312;98014;-79
2022/11/08 12:55:56;;;;;;;9.50;5.70;;;;;;;13.40;78.48;100213.47;125184;1303;98029;-79
2022/11/08 12:59:02;;;;;;;7.80;5.40;;;;;;;13.38;78.57;100211.23;125220;1297;98025;-79
2022/11/08 13:02:16;;;;;;;8.00;5.80;;;;;;;13.35;78.51;100210.77;125182;1308;98044;-79
2022/11/08 13:05:25;;;;;;;7.70;5.30;;;;;;;13.32;78.51;100207.13;125069;1304;99208;-79
2022/11/08 13:08:38;;;;;;;10.30;5.70;;;;;;;13.28;78.28;100209.35;125145;1302;98121;-79
2022/11/08 13:11:50;;;;;;;10.10;4.80;;;;;;;13.27;78.53;100213.08;125121;1293;98833;-79
2022/11/08 13:14:56;;;;;;;8.70;4.90;;;;;;;13.27;78.22;100210.27;125182;1297;98010;-80
2022/11/08 13:18:32;;;;;;;7.10;4.20;;;;;;;13.29;78.03;100213.21;125339;1302;99167;-80
2022/11/08 13:21:42;;;;;;;8.40;4.40;;;;;;;13.31;78.03;100204.71;125150;1297;98111;-80
2022/11/08 13:24:48;;;;;;;6.80;4.70;;;;;;;13.31;77.84;100204.26;125150;1303;98100;-80
2022/11/08 13:27:55;;;;;;;8.10;4.70;;;;;;;13.30;77.97;100205.77;125098;1297;99141;-80
2022/11/08 13:31:09;;;;;;;8.40;4.60;;;;;;;13.28;78.03;100201.05;125236;1297;98665;-80
2022/11/08 13:34:44;;;;;;;7.90;4.50;;;;;;;13.24;78.01;100204.02;125252;1296;99262;-80
2022/11/08 13:38:03;;;;;;;8.70;4.50;;;;;;;13.18;78.01;100200.38;125174;1297;98021;-80
2022/11/08 13:41:21;;;;;;;5.30;3.90;;;;;;;13.11;77.93;100197.67;125168;1303;99071;-80
2022/11/08 13:45:13;;;;;;;6.10;4.50;;;;;;;13.06;77.82;100193.50;125171;1303;99201;-80
2022/11/08 13:48:37;;;;;;;7.60;4.40;;;;;;;12.99;77.79;100194.58;125046;1304;98371;-80
2022/11/08 13:51:43;;;;;;;10.60;4.40;;;;;;;12.95;77.92;100194.83;125105;1304;99170;-80
2022/11/08 13:54:54;;;;;;;8.10;4.00;;;;;;;12.93;77.87;100195.37;125224;1292;99166;-80
2022/11/08 13:58:27;;;;;;;6.90;4.40;;;;;;;12.93;77.86;100193.30;125177;1303;99196;-80
2022/11/08 14:02:02;;;;;;;6.60;4.20;;;;;;;12.90;77.88;100192.85;125112;1303;98102;-80
2022/11/08 14:05:31;;;;;;;6.30;4.20;;;;;;;12.85;77.80;100187.21;125146;1297;99195;-80
2022/11/08 14:08:43;;;;;;;7.80;4.40;;;;;;;12.78;77.93;100192.58;125030;1303;97982;-80
2022/11/08 14:11:57;;;;;;;7.80;4.60;;;;;;;12.72;77.85;100190.02;125080;1304;98787;-80
2022/11/08 14:15:09;;;;;;;7.90;5.00;;;;;;;12.65;77.86;100190.14;125138;1296;99094;-80
2022/11/08 14:18:23;;;;;;;9.00;4.70;;;;;;;12.57;77.90;100193.48;125160;1306;98106;-80
2022/11/08 14:21:29;;;;;;;6.90;3.90;;;;;;;12.50;77.94;100191.19;125173;1297;99079;-80
2022/11/08 14:24:38;;;;;;;8.40;4.00;;;;;;;12.44;77.96;100193.26;125119;1297;98039;-80
2022/11/08 14:27:43;;;;;;;6.80;4.40;;;;;;;12.43;78.04;100197.48;125051;1310;99049;-80
2022/11/08 14:30:50;;;;;;;8.40;4.30;;;;;;;12.41;77.97;100198.27;125067;1297;99147;-80
2022/11/08 14:33:57;;;;;;;7.10;4.30;;;;;;;12.35;78.02;100196.55;125134;1290;99171;-80
2022/11/08 14:37:05;;;;;;;19.60;11.20;;;;;;;12.29;77.93;100193.11;125153;1311;98800;-80
2022/11/08 14:40:19;;;;;;;11.00;6.20;;;;;;;12.22;78.09;100189.91;125149;1297;99184;-77
2022/11/08 14:43:25;;;;;;;8.80;4.80;;;;;;;12.13;78.01;100191.45;125075;1302;195317;-78